sensor_id;sensor_type;location;lat;lon;timestamp;P1;durP1;ratioP1;P2;durP2;ratioP2
54271;SDS011;40184;53.362;5.216;2022-08-21T00:00:53;9.18;;;2.47;;
54271;SDS011;40184;53.362;5.216;2022-08-21T00:03:19;12.45;;;2.50;;
54271;SDS011;40184;53.362;5.216;2022-08-21T00:05:46;10.95;;;3.03;;
54271;SDS011;40184;53.362;5.216;2022-08-21T00:08:14;8.40;;;2.53;;
54271;SDS011;40184;53.362;5.216;2022-08-21T00:10:43;16.33;;;2.90;;
54271;SDS011;40184;53.362;5.216;2022-08-21T00:13:09;10.52;;;2.88;;
54271;SDS011;40184;53.362;5.216;2022-08-21T00:15:37;10.77;;;2.85;;
54271;SDS011;40184;53.362;5.216;2022-08-21T00:18:05;12.32;;;2.17;;
54271;SDS011;40184;53.362;5.216;2022-08-21T00:20:32;9.38;;;2.70;;
54271;SDS011;40184;53.362;5.216;2022-08-21T00:22:59;12.48;;;2.38;;
54271;SDS011;40184;53.362;5.216;2022-08-21T00:25:25;14.82;;;2.50;;
54271;SDS011;40184;53.362;5.216;2022-08-21T00:27:51;13.75;;;3.13;;
54271;SDS011;40184;53.362;5.216;2022-08-21T00:30:17;10.50;;;2.92;;
54271;SDS011;40184;53.362;5.216;2022-08-21T00:32:44;11.57;;;3.70;;
54271;SDS011;40184;53.362;5.216;2022-08-21T00:35:11;13.07;;;3.65;;
54271;SDS011;40184;53.362;5.216;2022-08-21T00:37:39;12.75;;;3.50;;
54271;SDS011;40184;53.362;5.216;2022-08-21T00:40:06;14.02;;;2.95;;
54271;SDS011;40184;53.362;5.216;2022-08-21T00:42:34;9.52;;;3.22;;
54271;SDS011;40184;53.362;5.216;2022-08-21T00:45:00;10.20;;;2.78;;
54271;SDS011;40184;53.362;5.216;2022-08-21T00:47:27;14.15;;;3.72;;
54271;SDS011;40184;53.362;5.216;2022-08-21T00:49:53;12.25;;;2.75;;
54271;SDS011;40184;53.362;5.216;2022-08-21T00:52:19;17.73;;;3.00;;
54271;SDS011;40184;53.362;5.216;2022-08-21T00:54:49;10.13;;;2.15;;
54271;SDS011;40184;53.362;5.216;2022-08-21T00:57:17;16.75;;;2.95;;
54271;SDS011;40184;53.362;5.216;2022-08-21T00:59:53;8.90;;;2.58;;
54271;SDS011;40184;53.362;5.216;2022-08-21T01:02:21;12.63;;;2.50;;
54271;SDS011;40184;53.362;5.216;2022-08-21T01:04:47;9.95;;;2.97;;
54271;SDS011;40184;53.362;5.216;2022-08-21T01:07:13;9.88;;;2.60;;
54271;SDS011;40184;53.362;5.216;2022-08-21T01:09:39;14.73;;;3.22;;
54271;SDS011;40184;53.362;5.216;2022-08-21T01:12:05;16.75;;;3.05;;
54271;SDS011;40184;53.362;5.216;2022-08-21T01:14:32;9.57;;;2.75;;
54271;SDS011;40184;53.362;5.216;2022-08-21T01:16:59;13.85;;;3.53;;
54271;SDS011;40184;53.362;5.216;2022-08-21T01:19:28;14.90;;;3.17;;
54271;SDS011;40184;53.362;5.216;2022-08-21T01:21:55;11.50;;;2.60;;
54271;SDS011;40184;53.362;5.216;2022-08-21T01:24:21;16.05;;;2.47;;
54271;SDS011;40184;53.362;5.216;2022-08-21T01:26:49;13.10;;;2.90;;
54271;SDS011;40184;53.362;5.216;2022-08-21T01:32:09;10.73;;;2.35;;
54271;SDS011;40184;53.362;5.216;2022-08-21T01:34:38;9.43;;;2.72;;
54271;SDS011;40184;53.362;5.216;2022-08-21T01:37:06;13.00;;;3.10;;
54271;SDS011;40184;53.362;5.216;2022-08-21T01:39:32;13.75;;;2.72;;
54271;SDS011;40184;53.362;5.216;2022-08-21T01:41:59;14.88;;;3.95;;
54271;SDS011;40184;53.362;5.216;2022-08-21T01:44:25;13.20;;;3.35;;
54271;SDS011;40184;53.362;5.216;2022-08-21T01:46:51;11.73;;;3.45;;
54271;SDS011;40184;53.362;5.216;2022-08-21T01:49:18;13.80;;;2.78;;
54271;SDS011;40184;53.362;5.216;2022-08-21T01:51:44;19.95;;;4.00;;
54271;SDS011;40184;53.362;5.216;2022-08-21T01:54:09;14.27;;;2.92;;
54271;SDS011;40184;53.362;5.216;2022-08-21T01:56:37;15.77;;;3.88;;
54271;SDS011;40184;53.362;5.216;2022-08-21T01:59:04;18.95;;;3.88;;
54271;SDS011;40184;53.362;5.216;2022-08-21T02:01:29;18.80;;;3.65;;
54271;SDS011;40184;53.362;5.216;2022-08-21T02:03:55;19.65;;;4.22;;
54271;SDS011;40184;53.362;5.216;2022-08-21T02:06:21;14.93;;;3.88;;
54271;SDS011;40184;53.362;5.216;2022-08-21T02:08:46;21.70;;;3.53;;
54271;SDS011;40184;53.362;5.216;2022-08-21T02:11:12;11.88;;;2.95;;
54271;SDS011;40184;53.362;5.216;2022-08-21T02:13:38;18.80;;;3.72;;
54271;SDS011;40184;53.362;5.216;2022-08-21T02:16:03;9.93;;;3.38;;
54271;SDS011;40184;53.362;5.216;2022-08-21T02:18:29;11.82;;;2.60;;
54271;SDS011;40184;53.362;5.216;2022-08-21T02:20:55;15.30;;;4.25;;
54271;SDS011;40184;53.362;5.216;2022-08-21T02:23:21;15.05;;;3.17;;
54271;SDS011;40184;53.362;5.216;2022-08-21T02:25:47;8.50;;;2.13;;
54271;SDS011;40184;53.362;5.216;2022-08-21T02:28:13;15.82;;;3.55;;
54271;SDS011;40184;53.362;5.216;2022-08-21T02:30:43;9.82;;;3.10;;
54271;SDS011;40184;53.362;5.216;2022-08-21T02:33:11;13.00;;;2.92;;
54271;SDS011;40184;53.362;5.216;2022-08-21T02:35:39;23.42;;;4.25;;
54271;SDS011;40184;53.362;5.216;2022-08-21T02:38:07;25.20;;;4.05;;
54271;SDS011;40184;53.362;5.216;2022-08-21T02:40:35;17.02;;;3.25;;
54271;SDS011;40184;53.362;5.216;2022-08-21T02:43:03;18.38;;;3.55;;
54271;SDS011;40184;53.362;5.216;2022-08-21T02:45:30;7.60;;;2.55;;
54271;SDS011;40184;53.362;5.216;2022-08-21T02:47:57;16.42;;;4.60;;
54271;SDS011;40184;53.362;5.216;2022-08-21T02:50:28;19.15;;;4.80;;
54271;SDS011;40184;53.362;5.216;2022-08-21T02:53:00;15.05;;;3.88;;
54271;SDS011;40184;53.362;5.216;2022-08-21T02:55:29;19.77;;;3.58;;
54271;SDS011;40184;53.362;5.216;2022-08-21T02:57:56;16.05;;;4.50;;
54271;SDS011;40184;53.362;5.216;2022-08-21T03:00:23;19.65;;;3.63;;
54271;SDS011;40184;53.362;5.216;2022-08-21T03:02:50;17.42;;;3.58;;
54271;SDS011;40184;53.362;5.216;2022-08-21T03:05:17;19.00;;;4.60;;
54271;SDS011;40184;53.362;5.216;2022-08-21T03:07:43;23.17;;;5.15;;
54271;SDS011;40184;53.362;5.216;2022-08-21T03:10:11;17.35;;;4.00;;
54271;SDS011;40184;53.362;5.216;2022-08-21T03:12:37;14.30;;;4.88;;
54271;SDS011;40184;53.362;5.216;2022-08-21T03:15:03;21.13;;;3.88;;
54271;SDS011;40184;53.362;5.216;2022-08-21T03:17:31;23.15;;;4.43;;
54271;SDS011;40184;53.362;5.216;2022-08-21T03:19:57;19.58;;;4.07;;
54271;SDS011;40184;53.362;5.216;2022-08-21T03:22:23;19.10;;;4.05;;
54271;SDS011;40184;53.362;5.216;2022-08-21T03:24:49;20.88;;;4.68;;
54271;SDS011;40184;53.362;5.216;2022-08-21T03:27:14;24.52;;;5.00;;
54271;SDS011;40184;53.362;5.216;2022-08-21T03:29:40;19.80;;;3.45;;
54271;SDS011;40184;53.362;5.216;2022-08-21T03:32:06;15.90;;;3.75;;
54271;SDS011;40184;53.362;5.216;2022-08-21T03:34:35;19.27;;;3.83;;
54271;SDS011;40184;53.362;5.216;2022-08-21T03:37:02;24.40;;;4.20;;
54271;SDS011;40184;53.362;5.216;2022-08-21T03:39:31;19.13;;;5.18;;
54271;SDS011;40184;53.362;5.216;2022-08-21T03:41:57;18.63;;;4.28;;
54271;SDS011;40184;53.362;5.216;2022-08-21T03:44:23;26.88;;;5.00;;
54271;SDS011;40184;53.362;5.216;2022-08-21T03:46:48;23.55;;;4.88;;
54271;SDS011;40184;53.362;5.216;2022-08-21T03:49:14;22.02;;;4.25;;
54271;SDS011;40184;53.362;5.216;2022-08-21T03:51:40;28.08;;;3.65;;
54271;SDS011;40184;53.362;5.216;2022-08-21T03:54:05;26.42;;;4.63;;
54271;SDS011;40184;53.362;5.216;2022-08-21T03:56:31;22.48;;;4.90;;
54271;SDS011;40184;53.362;5.216;2022-08-21T03:58:57;19.15;;;4.43;;
54271;SDS011;40184;53.362;5.216;2022-08-21T04:01:23;20.48;;;4.35;;
54271;SDS011;40184;53.362;5.216;2022-08-21T04:03:49;20.23;;;5.10;;
54271;SDS011;40184;53.362;5.216;2022-08-21T04:06:14;21.58;;;4.43;;
54271;SDS011;40184;53.362;5.216;2022-08-21T04:08:40;23.10;;;5.70;;
54271;SDS011;40184;53.362;5.216;2022-08-21T04:11:08;19.08;;;4.35;;
54271;SDS011;40184;53.362;5.216;2022-08-21T04:13:35;27.80;;;4.75;;
54271;SDS011;40184;53.362;5.216;2022-08-21T04:16:01;29.55;;;5.53;;
54271;SDS011;40184;53.362;5.216;2022-08-21T04:18:27;19.85;;;4.70;;
54271;SDS011;40184;53.362;5.216;2022-08-21T04:20:53;26.33;;;5.13;;
54271;SDS011;40184;53.362;5.216;2022-08-21T04:23:20;28.95;;;5.45;;
54271;SDS011;40184;53.362;5.216;2022-08-21T04:25:46;20.50;;;4.20;;
54271;SDS011;40184;53.362;5.216;2022-08-21T04:28:12;22.13;;;3.97;;
54271;SDS011;40184;53.362;5.216;2022-08-21T04:30:38;19.88;;;5.05;;
54271;SDS011;40184;53.362;5.216;2022-08-21T04:33:04;18.90;;;4.43;;
54271;SDS011;40184;53.362;5.216;2022-08-21T04:35:30;20.98;;;4.28;;
54271;SDS011;40184;53.362;5.216;2022-08-21T04:37:56;23.17;;;4.70;;
54271;SDS011;40184;53.362;5.216;2022-08-21T04:40:23;18.33;;;4.05;;
54271;SDS011;40184;53.362;5.216;2022-08-21T04:42:52;20.55;;;4.10;;
54271;SDS011;40184;53.362;5.216;2022-08-21T04:45:26;25.10;;;5.30;;
54271;SDS011;40184;53.362;5.216;2022-08-21T04:47:54;22.02;;;4.40;;
54271;SDS011;40184;53.362;5.216;2022-08-21T04:50:22;16.95;;;3.78;;
54271;SDS011;40184;53.362;5.216;2022-08-21T04:52:52;19.70;;;3.88;;
54271;SDS011;40184;53.362;5.216;2022-08-21T04:55:19;21.92;;;4.60;;
54271;SDS011;40184;53.362;5.216;2022-08-21T04:57:46;24.70;;;4.50;;
54271;SDS011;40184;53.362;5.216;2022-08-21T05:00:12;19.08;;;4.18;;
54271;SDS011;40184;53.362;5.216;2022-08-21T05:02:39;17.30;;;3.75;;
54271;SDS011;40184;53.362;5.216;2022-08-21T05:05:06;28.75;;;4.63;;
54271;SDS011;40184;53.362;5.216;2022-08-21T05:07:32;18.77;;;4.55;;
54271;SDS011;40184;53.362;5.216;2022-08-21T05:09:59;16.30;;;4.63;;
54271;SDS011;40184;53.362;5.216;2022-08-21T05:12:26;17.50;;;4.53;;
54271;SDS011;40184;53.362;5.216;2022-08-21T05:14:51;21.85;;;4.10;;
54271;SDS011;40184;53.362;5.216;2022-08-21T05:17:17;25.63;;;4.25;;
54271;SDS011;40184;53.362;5.216;2022-08-21T05:19:43;20.10;;;4.30;;
54271;SDS011;40184;53.362;5.216;2022-08-21T05:22:08;21.50;;;4.82;;
54271;SDS011;40184;53.362;5.216;2022-08-21T05:24:34;16.48;;;4.70;;
54271;SDS011;40184;53.362;5.216;2022-08-21T05:27:00;12.90;;;3.60;;
54271;SDS011;40184;53.362;5.216;2022-08-21T05:29:26;23.27;;;4.88;;
54271;SDS011;40184;53.362;5.216;2022-08-21T05:31:52;21.73;;;3.80;;
54271;SDS011;40184;53.362;5.216;2022-08-21T05:34:18;19.58;;;3.72;;
54271;SDS011;40184;53.362;5.216;2022-08-21T05:36:47;16.73;;;3.28;;
54271;SDS011;40184;53.362;5.216;2022-08-21T05:39:13;17.13;;;3.40;;
54271;SDS011;40184;53.362;5.216;2022-08-21T05:41:39;19.38;;;4.20;;
54271;SDS011;40184;53.362;5.216;2022-08-21T05:44:04;12.27;;;3.75;;
54271;SDS011;40184;53.362;5.216;2022-08-21T05:46:30;16.10;;;3.28;;
54271;SDS011;40184;53.362;5.216;2022-08-21T05:48:56;16.38;;;4.05;;
54271;SDS011;40184;53.362;5.216;2022-08-21T05:51:22;14.10;;;3.00;;
54271;SDS011;40184;53.362;5.216;2022-08-21T05:53:48;24.60;;;3.90;;
54271;SDS011;40184;53.362;5.216;2022-08-21T05:56:14;16.65;;;4.03;;
54271;SDS011;40184;53.362;5.216;2022-08-21T05:58:40;17.05;;;3.75;;
54271;SDS011;40184;53.362;5.216;2022-08-21T06:01:07;16.08;;;3.17;;
54271;SDS011;40184;53.362;5.216;2022-08-21T06:03:34;12.02;;;3.28;;
54271;SDS011;40184;53.362;5.216;2022-08-21T06:06:03;14.02;;;3.75;;
54271;SDS011;40184;53.362;5.216;2022-08-21T06:08:29;11.60;;;2.85;;
54271;SDS011;40184;53.362;5.216;2022-08-21T06:10:55;12.85;;;3.63;;
54271;SDS011;40184;53.362;5.216;2022-08-21T06:13:23;15.60;;;4.88;;
54271;SDS011;40184;53.362;5.216;2022-08-21T06:15:50;17.30;;;3.90;;
54271;SDS011;40184;53.362;5.216;2022-08-21T06:18:26;13.00;;;3.92;;
54271;SDS011;40184;53.362;5.216;2022-08-21T06:20:52;24.80;;;4.75;;
54271;SDS011;40184;53.362;5.216;2022-08-21T06:23:18;12.73;;;3.92;;
54271;SDS011;40184;53.362;5.216;2022-08-21T06:25:43;17.58;;;3.78;;
54271;SDS011;40184;53.362;5.216;2022-08-21T06:28:09;15.98;;;4.10;;
54271;SDS011;40184;53.362;5.216;2022-08-21T06:30:36;12.65;;;3.30;;
54271;SDS011;40184;53.362;5.216;2022-08-21T06:33:03;19.85;;;3.90;;
54271;SDS011;40184;53.362;5.216;2022-08-21T06:35:29;17.27;;;3.58;;
54271;SDS011;40184;53.362;5.216;2022-08-21T06:37:58;14.63;;;3.65;;
54271;SDS011;40184;53.362;5.216;2022-08-21T06:40:25;10.48;;;3.03;;
54271;SDS011;40184;53.362;5.216;2022-08-21T06:42:51;18.63;;;3.65;;
54271;SDS011;40184;53.362;5.216;2022-08-21T06:45:18;18.33;;;3.83;;
54271;SDS011;40184;53.362;5.216;2022-08-21T06:47:44;12.73;;;3.55;;
54271;SDS011;40184;53.362;5.216;2022-08-21T06:50:09;9.70;;;3.42;;
54271;SDS011;40184;53.362;5.216;2022-08-21T06:52:35;11.98;;;3.03;;
54271;SDS011;40184;53.362;5.216;2022-08-21T06:55:02;12.50;;;3.20;;
54271;SDS011;40184;53.362;5.216;2022-08-21T06:57:32;11.05;;;2.85;;
54271;SDS011;40184;53.362;5.216;2022-08-21T06:59:58;11.63;;;2.70;;
54271;SDS011;40184;53.362;5.216;2022-08-21T07:02:24;8.77;;;3.28;;
54271;SDS011;40184;53.362;5.216;2022-08-21T07:04:49;13.38;;;3.05;;
54271;SDS011;40184;53.362;5.216;2022-08-21T07:07:15;10.05;;;2.58;;
54271;SDS011;40184;53.362;5.216;2022-08-21T07:09:42;10.10;;;3.20;;
54271;SDS011;40184;53.362;5.216;2022-08-21T07:12:08;13.10;;;2.90;;
54271;SDS011;40184;53.362;5.216;2022-08-21T07:14:35;8.80;;;2.30;;
54271;SDS011;40184;53.362;5.216;2022-08-21T07:17:01;13.30;;;2.38;;
54271;SDS011;40184;53.362;5.216;2022-08-21T07:19:27;10.10;;;3.15;;
54271;SDS011;40184;53.362;5.216;2022-08-21T07:21:54;7.90;;;2.63;;
54271;SDS011;40184;53.362;5.216;2022-08-21T07:26:50;5.00;;;2.35;;
54271;SDS011;40184;53.362;5.216;2022-08-21T07:29:16;6.53;;;2.08;;
54271;SDS011;40184;53.362;5.216;2022-08-21T07:31:42;7.75;;;2.50;;
54271;SDS011;40184;53.362;5.216;2022-08-21T07:34:08;11.52;;;2.88;;
54271;SDS011;40184;53.362;5.216;2022-08-21T07:36:33;7.45;;;2.95;;
54271;SDS011;40184;53.362;5.216;2022-08-21T07:38:59;13.23;;;3.28;;
54271;SDS011;40184;53.362;5.216;2022-08-21T07:41:26;8.63;;;2.92;;
54271;SDS011;40184;53.362;5.216;2022-08-21T07:43:55;9.30;;;2.75;;
54271;SDS011;40184;53.362;5.216;2022-08-21T07:46:22;8.60;;;3.15;;
54271;SDS011;40184;53.362;5.216;2022-08-21T07:48:48;8.20;;;2.97;;
54271;SDS011;40184;53.362;5.216;2022-08-21T07:51:15;10.13;;;2.58;;
54271;SDS011;40184;53.362;5.216;2022-08-21T07:53:41;11.00;;;2.88;;
54271;SDS011;40184;53.362;5.216;2022-08-21T07:56:12;11.30;;;3.47;;
54271;SDS011;40184;53.362;5.216;2022-08-21T07:58:38;9.30;;;2.88;;
54271;SDS011;40184;53.362;5.216;2022-08-21T08:01:04;8.75;;;2.42;;
54271;SDS011;40184;53.362;5.216;2022-08-21T08:03:30;8.95;;;2.63;;
54271;SDS011;40184;53.362;5.216;2022-08-21T08:05:56;14.50;;;2.33;;
54271;SDS011;40184;53.362;5.216;2022-08-21T08:08:22;10.35;;;3.00;;
54271;SDS011;40184;53.362;5.216;2022-08-21T08:10:48;14.15;;;3.33;;
54271;SDS011;40184;53.362;5.216;2022-08-21T08:13:15;9.35;;;2.95;;
54271;SDS011;40184;53.362;5.216;2022-08-21T08:15:41;15.23;;;3.47;;
54271;SDS011;40184;53.362;5.216;2022-08-21T08:18:06;8.60;;;2.88;;
54271;SDS011;40184;53.362;5.216;2022-08-21T08:20:32;8.73;;;2.80;;
54271;SDS011;40184;53.362;5.216;2022-08-21T08:22:58;9.98;;;2.63;;
54271;SDS011;40184;53.362;5.216;2022-08-21T08:25:24;15.65;;;3.05;;
54271;SDS011;40184;53.362;5.216;2022-08-21T08:27:51;11.57;;;2.83;;
54271;SDS011;40184;53.362;5.216;2022-08-21T08:30:17;10.65;;;2.45;;
54271;SDS011;40184;53.362;5.216;2022-08-21T08:32:44;13.30;;;3.38;;
54271;SDS011;40184;53.362;5.216;2022-08-21T08:35:10;8.65;;;2.95;;
54271;SDS011;40184;53.362;5.216;2022-08-21T08:37:37;10.48;;;3.08;;
54271;SDS011;40184;53.362;5.216;2022-08-21T08:40:05;12.45;;;3.72;;
54271;SDS011;40184;53.362;5.216;2022-08-21T08:42:38;12.85;;;2.58;;
54271;SDS011;40184;53.362;5.216;2022-08-21T08:45:08;10.23;;;2.53;;
54271;SDS011;40184;53.362;5.216;2022-08-21T08:47:42;10.70;;;2.72;;
54271;SDS011;40184;53.362;5.216;2022-08-21T08:52:53;6.85;;;2.10;;
54271;SDS011;40184;53.362;5.216;2022-08-21T08:55:30;6.95;;;2.10;;
54271;SDS011;40184;53.362;5.216;2022-08-21T08:58:00;11.07;;;3.22;;
54271;SDS011;40184;53.362;5.216;2022-08-21T09:00:27;10.52;;;3.30;;
54271;SDS011;40184;53.362;5.216;2022-08-21T09:02:55;7.60;;;2.30;;
54271;SDS011;40184;53.362;5.216;2022-08-21T09:05:39;8.30;;;2.83;;
54271;SDS011;40184;53.362;5.216;2022-08-21T09:08:38;6.05;;;2.70;;
54271;SDS011;40184;53.362;5.216;2022-08-21T09:12:04;5.85;;;2.42;;
54271;SDS011;40184;53.362;5.216;2022-08-21T09:19:59;9.15;;;2.33;;
54271;SDS011;40184;53.362;5.216;2022-08-21T09:22:37;11.32;;;2.75;;
54271;SDS011;40184;53.362;5.216;2022-08-21T09:27:53;12.80;;;2.85;;
54271;SDS011;40184;53.362;5.216;2022-08-21T09:30:19;8.98;;;2.95;;
54271;SDS011;40184;53.362;5.216;2022-08-21T09:32:51;9.50;;;2.30;;
54271;SDS011;40184;53.362;5.216;2022-08-21T09:35:18;9.18;;;2.30;;
54271;SDS011;40184;53.362;5.216;2022-08-21T09:37:57;6.95;;;2.45;;
54271;SDS011;40184;53.362;5.216;2022-08-21T09:43:06;8.80;;;2.75;;
54271;SDS011;40184;53.362;5.216;2022-08-21T09:45:37;15.70;;;2.67;;
54271;SDS011;40184;53.362;5.216;2022-08-21T09:48:23;8.52;;;2.35;;
54271;SDS011;40184;53.362;5.216;2022-08-21T09:50:50;7.25;;;2.50;;
54271;SDS011;40184;53.362;5.216;2022-08-21T09:53:18;10.60;;;2.88;;
54271;SDS011;40184;53.362;5.216;2022-08-21T09:55:56;11.48;;;2.97;;
54271;SDS011;40184;53.362;5.216;2022-08-21T09:58:43;7.38;;;2.53;;
54271;SDS011;40184;53.362;5.216;2022-08-21T10:01:16;9.75;;;2.85;;
54271;SDS011;40184;53.362;5.216;2022-08-21T10:03:45;7.63;;;2.13;;
54271;SDS011;40184;53.362;5.216;2022-08-21T10:06:20;9.05;;;2.58;;
54271;SDS011;40184;53.362;5.216;2022-08-21T10:09:02;11.68;;;2.50;;
54271;SDS011;40184;53.362;5.216;2022-08-21T10:11:30;7.90;;;2.42;;
54271;SDS011;40184;53.362;5.216;2022-08-21T10:14:13;13.63;;;2.53;;
54271;SDS011;40184;53.362;5.216;2022-08-21T10:22:15;9.65;;;3.03;;
54271;SDS011;40184;53.362;5.216;2022-08-21T10:36:19;9.93;;;3.15;;
54271;SDS011;40184;53.362;5.216;2022-08-21T10:54:49;8.90;;;2.30;;
54271;SDS011;40184;53.362;5.216;2022-08-21T10:57:27;13.73;;;2.17;;
54271;SDS011;40184;53.362;5.216;2022-08-21T11:00:17;9.93;;;2.20;;
54271;SDS011;40184;53.362;5.216;2022-08-21T11:02:50;15.73;;;2.83;;
54271;SDS011;40184;53.362;5.216;2022-08-21T11:07:57;10.82;;;2.88;;
54271;SDS011;40184;53.362;5.216;2022-08-21T11:11:29;10.63;;;2.42;;
54271;SDS011;40184;53.362;5.216;2022-08-21T11:13:45;8.73;;;2.03;;
54271;SDS011;40184;53.362;5.216;2022-08-21T11:16:18;9.20;;;2.00;;
54271;SDS011;40184;53.362;5.216;2022-08-21T11:19:02;8.00;;;2.17;;
54271;SDS011;40184;53.362;5.216;2022-08-21T11:21:45;7.63;;;2.22;;
54271;SDS011;40184;53.362;5.216;2022-08-21T11:29:55;7.88;;;2.20;;
54271;SDS011;40184;53.362;5.216;2022-08-21T11:38:41;11.45;;;2.72;;
54271;SDS011;40184;53.362;5.216;2022-08-21T11:43:41;8.77;;;2.25;;
54271;SDS011;40184;53.362;5.216;2022-08-21T11:46:16;8.55;;;1.95;;
54271;SDS011;40184;53.362;5.216;2022-08-21T11:51:44;9.10;;;1.88;;
54271;SDS011;40184;53.362;5.216;2022-08-21T11:54:26;8.05;;;2.05;;
54271;SDS011;40184;53.362;5.216;2022-08-21T11:59:51;5.68;;;2.38;;
54271;SDS011;40184;53.362;5.216;2022-08-21T12:02:48;11.07;;;2.65;;
54271;SDS011;40184;53.362;5.216;2022-08-21T12:05:32;12.13;;;2.45;;
54271;SDS011;40184;53.362;5.216;2022-08-21T12:10:34;7.67;;;2.20;;
54271;SDS011;40184;53.362;5.216;2022-08-21T12:13:05;7.57;;;2.63;;
54271;SDS011;40184;53.362;5.216;2022-08-21T12:15:38;11.60;;;2.17;;
54271;SDS011;40184;53.362;5.216;2022-08-21T12:18:06;11.52;;;4.03;;
54271;SDS011;40184;53.362;5.216;2022-08-21T12:20:57;7.53;;;2.10;;
54271;SDS011;40184;53.362;5.216;2022-08-21T12:23:28;9.82;;;2.83;;
54271;SDS011;40184;53.362;5.216;2022-08-21T12:28:46;7.97;;;2.05;;
54271;SDS011;40184;53.362;5.216;2022-08-21T12:31:23;8.63;;;2.65;;
54271;SDS011;40184;53.362;5.216;2022-08-21T12:33:53;10.88;;;3.13;;
54271;SDS011;40184;53.362;5.216;2022-08-21T12:38:57;6.32;;;2.38;;
54271;SDS011;40184;53.362;5.216;2022-08-21T12:41:29;11.02;;;3.15;;
54271;SDS011;40184;53.362;5.216;2022-08-21T12:44:00;9.25;;;2.45;;
54271;SDS011;40184;53.362;5.216;2022-08-21T12:46:32;8.00;;;2.75;;
54271;SDS011;40184;53.362;5.216;2022-08-21T12:49:15;16.95;;;4.45;;
54271;SDS011;40184;53.362;5.216;2022-08-21T12:51:52;9.07;;;2.22;;
54271;SDS011;40184;53.362;5.216;2022-08-21T12:54:23;8.65;;;2.22;;
54271;SDS011;40184;53.362;5.216;2022-08-21T12:56:55;13.05;;;3.15;;
54271;SDS011;40184;53.362;5.216;2022-08-21T12:59:23;8.45;;;2.53;;
54271;SDS011;40184;53.362;5.216;2022-08-21T13:01:49;11.18;;;2.78;;
54271;SDS011;40184;53.362;5.216;2022-08-21T13:04:17;8.70;;;2.45;;
54271;SDS011;40184;53.362;5.216;2022-08-21T13:06:47;7.55;;;2.60;;
54271;SDS011;40184;53.362;5.216;2022-08-21T13:09:17;11.95;;;2.42;;
54271;SDS011;40184;53.362;5.216;2022-08-21T13:11:47;11.20;;;2.72;;
54271;SDS011;40184;53.362;5.216;2022-08-21T13:14:17;15.13;;;2.55;;
54271;SDS011;40184;53.362;5.216;2022-08-21T13:16:47;8.73;;;2.92;;
54271;SDS011;40184;53.362;5.216;2022-08-21T13:19:17;12.15;;;3.20;;
54271;SDS011;40184;53.362;5.216;2022-08-21T13:21:44;9.80;;;2.03;;
54271;SDS011;40184;53.362;5.216;2022-08-21T13:26:43;9.55;;;2.63;;
54271;SDS011;40184;53.362;5.216;2022-08-21T13:29:10;9.57;;;3.08;;
54271;SDS011;40184;53.362;5.216;2022-08-21T13:31:37;14.82;;;2.70;;
54271;SDS011;40184;53.362;5.216;2022-08-21T13:34:05;9.70;;;2.97;;
54271;SDS011;40184;53.362;5.216;2022-08-21T13:36:34;13.35;;;3.80;;
54271;SDS011;40184;53.362;5.216;2022-08-21T13:39:03;13.30;;;3.42;;
54271;SDS011;40184;53.362;5.216;2022-08-21T13:41:32;10.18;;;2.90;;
54271;SDS011;40184;53.362;5.216;2022-08-21T13:44:01;10.95;;;2.63;;
54271;SDS011;40184;53.362;5.216;2022-08-21T13:46:30;8.48;;;2.70;;
54271;SDS011;40184;53.362;5.216;2022-08-21T13:48:59;9.82;;;2.67;;
54271;SDS011;40184;53.362;5.216;2022-08-21T13:51:26;7.57;;;2.53;;
54271;SDS011;40184;53.362;5.216;2022-08-21T13:53:52;12.75;;;3.30;;
54271;SDS011;40184;53.362;5.216;2022-08-21T13:58:56;7.72;;;2.72;;
54271;SDS011;40184;53.362;5.216;2022-08-21T14:01:27;8.65;;;2.78;;
54271;SDS011;40184;53.362;5.216;2022-08-21T14:03:55;11.23;;;3.17;;
54271;SDS011;40184;53.362;5.216;2022-08-21T14:06:27;9.98;;;3.20;;
54271;SDS011;40184;53.362;5.216;2022-08-21T14:08:58;9.30;;;2.70;;
54271;SDS011;40184;53.362;5.216;2022-08-21T14:11:26;7.60;;;2.80;;
54271;SDS011;40184;53.362;5.216;2022-08-21T14:13:58;11.02;;;2.88;;
54271;SDS011;40184;53.362;5.216;2022-08-21T14:16:29;7.70;;;2.90;;
54271;SDS011;40184;53.362;5.216;2022-08-21T14:19:18;8.30;;;3.42;;
54271;SDS011;40184;53.362;5.216;2022-08-21T14:21:50;9.60;;;3.08;;
54271;SDS011;40184;53.362;5.216;2022-08-21T14:26:55;9.90;;;2.65;;
54271;SDS011;40184;53.362;5.216;2022-08-21T14:29:26;7.88;;;2.90;;
54271;SDS011;40184;53.362;5.216;2022-08-21T14:31:58;12.32;;;2.78;;
54271;SDS011;40184;53.362;5.216;2022-08-21T14:34:26;11.43;;;3.03;;
54271;SDS011;40184;53.362;5.216;2022-08-21T14:36:53;11.23;;;3.20;;
54271;SDS011;40184;53.362;5.216;2022-08-21T14:39:20;11.43;;;2.63;;
54271;SDS011;40184;53.362;5.216;2022-08-21T14:41:46;9.48;;;3.05;;
54271;SDS011;40184;53.362;5.216;2022-08-21T14:44:14;9.27;;;2.85;;
54271;SDS011;40184;53.362;5.216;2022-08-21T14:46:41;10.05;;;3.10;;
54271;SDS011;40184;53.362;5.216;2022-08-21T14:49:07;9.68;;;2.70;;
54271;SDS011;40184;53.362;5.216;2022-08-21T14:51:35;8.57;;;2.38;;
54271;SDS011;40184;53.362;5.216;2022-08-21T14:54:01;10.55;;;2.67;;
54271;SDS011;40184;53.362;5.216;2022-08-21T14:56:27;15.10;;;3.63;;
54271;SDS011;40184;53.362;5.216;2022-08-21T14:58:53;12.27;;;2.97;;
54271;SDS011;40184;53.362;5.216;2022-08-21T15:01:21;15.38;;;3.85;;
54271;SDS011;40184;53.362;5.216;2022-08-21T15:03:47;9.18;;;2.97;;
54271;SDS011;40184;53.362;5.216;2022-08-21T15:06:14;8.23;;;2.67;;
54271;SDS011;40184;53.362;5.216;2022-08-21T15:08:42;9.52;;;2.58;;
54271;SDS011;40184;53.362;5.216;2022-08-21T15:11:08;8.05;;;3.03;;
54271;SDS011;40184;53.362;5.216;2022-08-21T15:13:37;12.40;;;2.85;;
54271;SDS011;40184;53.362;5.216;2022-08-21T15:16:03;10.52;;;3.30;;
54271;SDS011;40184;53.362;5.216;2022-08-21T15:18:30;11.73;;;3.78;;
54271;SDS011;40184;53.362;5.216;2022-08-21T15:20:57;11.85;;;3.45;;
54271;SDS011;40184;53.362;5.216;2022-08-21T15:23:30;11.95;;;2.60;;
54271;SDS011;40184;53.362;5.216;2022-08-21T15:25:55;10.13;;;3.08;;
54271;SDS011;40184;53.362;5.216;2022-08-21T15:28:23;10.30;;;3.05;;
54271;SDS011;40184;53.362;5.216;2022-08-21T15:30:49;10.18;;;3.13;;
54271;SDS011;40184;53.362;5.216;2022-08-21T15:33:16;9.68;;;3.20;;
54271;SDS011;40184;53.362;5.216;2022-08-21T15:35:43;8.65;;;3.05;;
54271;SDS011;40184;53.362;5.216;2022-08-21T15:38:09;9.40;;;2.80;;
54271;SDS011;40184;53.362;5.216;2022-08-21T15:40:35;9.80;;;3.40;;
54271;SDS011;40184;53.362;5.216;2022-08-21T15:43:03;8.20;;;2.90;;
54271;SDS011;40184;53.362;5.216;2022-08-21T15:45:29;9.80;;;3.40;;
54271;SDS011;40184;53.362;5.216;2022-08-21T15:47:55;13.48;;;3.47;;
54271;SDS011;40184;53.362;5.216;2022-08-21T15:50:22;10.57;;;2.97;;
54271;SDS011;40184;53.362;5.216;2022-08-21T15:52:48;11.80;;;2.83;;
54271;SDS011;40184;53.362;5.216;2022-08-21T15:55:14;13.60;;;3.50;;
54271;SDS011;40184;53.362;5.216;2022-08-21T15:57:44;14.70;;;3.50;;
54271;SDS011;40184;53.362;5.216;2022-08-21T16:02:42;12.77;;;3.13;;
54271;SDS011;40184;53.362;5.216;2022-08-21T16:05:11;12.43;;;3.22;;
54271;SDS011;40184;53.362;5.216;2022-08-21T16:07:38;12.02;;;3.67;;
54271;SDS011;40184;53.362;5.216;2022-08-21T16:10:05;8.88;;;2.85;;
54271;SDS011;40184;53.362;5.216;2022-08-21T16:12:34;12.52;;;3.90;;
54271;SDS011;40184;53.362;5.216;2022-08-21T16:15:03;8.68;;;2.55;;
54271;SDS011;40184;53.362;5.216;2022-08-21T16:17:33;6.55;;;2.70;;
54271;SDS011;40184;53.362;5.216;2022-08-21T16:20:01;7.97;;;2.83;;